Belmont Heights, Utah
Current Conditions -  °F | °C
As of 8:35 PM on Monday 22 Dec 2014 (Local Time) from K36U Reporting Station
Light Snow Light Snow  
Wind Chill: 20°   Ceiling: 3100
Heat Index: 32°   Visibility: 3mi
Dew Point: 27°   Wind: 20mph
Humidity: 80%   Direction: 350°N
Pressure: 30.07"   Gusts: 28mph
Location:  40.5907°N, 111.707°W
Report Text: K36U 230335Z AUTO 35017G24KT 3SM -SN SCT012 BKN031 OVC080 00/M03 A3007 RMK AO2
Loading
Personal Weather Stations






























Interactive Weather Map New forecast layout! Learn more

10-Day Weather Forecast

Advertisements
Track Severe Weather on mobile